Time;durP1;ratioP1;P1;durP2;ratioP2;P2;SDS_P1;SDS_P2;PMS_P1;PMS_P2;Temp;Humidity;BMP_temperature;BMP_pressure;BME280_temperature;BME280_humidity;BME280_pressure;Samples;Min_cycle;Max_cycle;Signal;HPM_P1;HPM_P2
2023/06/22 00:00:19;;;;;;;6.63;3.80;;;;;;;;;;5032484;28;20222;-60
2023/06/22 00:02:45;;;;;;;7.50;3.88;;;;;;;;;;5032550;28;20687;-60
2023/06/22 00:05:10;;;;;;;6.80;4.03;;;;;;;;;;5031657;28;20270;-60
2023/06/22 00:07:35;;;;;;;6.70;4.13;;;;;;;;;;5032561;28;20212;-60
2023/06/22 00:10:01;;;;;;;7.80;4.43;;;;;;;;;;5014187;28;20239;-60
2023/06/22 00:12:26;;;;;;;6.60;4.25;;;;;;;;;;5012476;28;20236;-60
2023/06/22 00:14:51;;;;;;;7.10;4.00;;;;;;;;;;5012817;28;20216;-60
2023/06/22 00:17:17;;;;;;;7.45;4.03;;;;;;;;;;5012137;28;20205;-60
2023/06/22 00:19:42;;;;;;;6.75;3.63;;;;;;;;;;5012376;28;20217;-60
2023/06/22 00:22:08;;;;;;;7.40;3.70;;;;;;;;;;5011122;28;20216;-60
2023/06/22 00:24:33;;;;;;;10.93;4.50;;;;;;;;;;5011916;28;20216;-60
2023/06/22 00:26:58;;;;;;;8.18;4.35;;;;;;;;;;5011621;28;20231;-60
2023/06/22 00:29:23;;;;;;;8.50;4.72;;;;;;;;;;5012368;28;20566;-60
2023/06/22 00:31:49;;;;;;;7.07;3.97;;;;;;;;;;5011829;28;20507;-60
2023/06/22 00:34:15;;;;;;;6.60;3.50;;;;;;;;;;5012166;28;20220;-60
2023/06/22 00:36:41;;;;;;;8.27;5.07;;;;;;;;;;5012606;28;20213;-60
2023/06/22 00:39:07;;;;;;;7.05;3.92;;;;;;;;;;5011498;28;20228;-60
2023/06/22 00:41:32;;;;;;;7.43;3.67;;;;;;;;;;5012213;28;20285;-60
2023/06/22 00:43:57;;;;;;;9.05;4.05;;;;;;;;;;5012488;28;20299;-60
2023/06/22 00:46:23;;;;;;;7.22;3.90;;;;;;;;;;5011472;28;20287;-60
2023/06/22 00:48:48;;;;;;;6.65;4.10;;;;;;;;;;5012267;28;20350;-60
2023/06/22 00:51:14;;;;;;;6.47;3.78;;;;;;;;;;5011697;28;20212;-60
2023/06/22 00:53:40;;;;;;;6.95;3.88;;;;;;;;;;5011968;28;20252;-60
2023/06/22 00:56:08;;;;;;;6.88;3.95;;;;;;;;;;5023949;28;20303;-60
2023/06/22 00:58:34;;;;;;;6.40;4.00;;;;;;;;;;5031948;28;20250;-60
2023/06/22 01:01:01;;;;;;;8.20;4.22;;;;;;;;;;5031457;28;20220;-60
2023/06/22 01:03:26;;;;;;;7.40;4.05;;;;;;;;;;5031918;28;20211;-60
2023/06/22 01:05:51;;;;;;;8.45;5.18;;;;;;;;;;5031615;28;20212;-61
2023/06/22 01:08:17;;;;;;;7.63;4.20;;;;;;;;;;5027648;28;20213;-60
2023/06/22 01:10:42;;;;;;;7.15;3.75;;;;;;;;;;5016382;28;20221;-60
2023/06/22 01:13:09;;;;;;;7.22;3.97;;;;;;;;;;5015482;28;20679;-60
2023/06/22 01:15:43;;;;;;;6.28;3.78;;;;;;;;;;5015536;28;20214;-60
2023/06/22 01:18:08;;;;;;;5.38;3.75;;;;;;;;;;5014437;28;20208;-60
2023/06/22 01:20:34;;;;;;;8.25;4.10;;;;;;;;;;5014581;28;20795;-60
2023/06/22 01:23:06;;;;;;;7.78;3.97;;;;;;;;;;5015574;28;20271;-60
2023/06/22 01:25:33;;;;;;;8.77;4.43;;;;;;;;;;5014437;28;20213;-60
2023/06/22 01:28:15;;;;;;;9.93;4.50;;;;;;;;;;5013511;28;20707;-60
2023/06/22 01:30:41;;;;;;;7.30;4.43;;;;;;;;;;5014605;28;20258;-60
2023/06/22 01:33:07;;;;;;;12.57;4.90;;;;;;;;;;5015249;28;20255;-60
2023/06/22 01:35:32;;;;;;;9.00;4.03;;;;;;;;;;5013725;28;20232;-60
2023/06/22 01:37:58;;;;;;;7.20;4.35;;;;;;;;;;5015861;28;20235;-60
2023/06/22 01:40:23;;;;;;;7.63;4.80;;;;;;;;;;5015045;28;20228;-60
2023/06/22 01:42:48;;;;;;;9.20;5.00;;;;;;;;;;5014985;28;20619;-60
2023/06/22 01:45:14;;;;;;;9.23;4.85;;;;;;;;;;5015286;28;21033;-60
2023/06/22 01:47:39;;;;;;;8.95;6.13;;;;;;;;;;5015510;28;20303;-60
2023/06/22 01:50:05;;;;;;;8.45;5.35;;;;;;;;;;5013338;28;20266;-60
2023/06/22 01:52:30;;;;;;;8.73;5.55;;;;;;;;;;5015472;28;20217;-60
2023/06/22 01:54:57;;;;;;;10.43;5.82;;;;;;;;;;5017796;28;20222;-60
2023/06/22 01:57:23;;;;;;;9.82;6.40;;;;;;;;;;5033819;28;20208;-60
2023/06/22 01:59:50;;;;;;;10.77;6.50;;;;;;;;;;5035020;28;20238;-60
2023/06/22 02:02:16;;;;;;;10.52;6.20;;;;;;;;;;5033223;28;20270;-60
2023/06/22 02:04:44;;;;;;;10.63;6.60;;;;;;;;;;5033284;28;20679;-60
2023/06/22 02:07:11;;;;;;;10.45;7.03;;;;;;;;;;5034337;28;20637;-60
2023/06/22 02:09:37;;;;;;;11.27;6.30;;;;;;;;;;5020055;28;20216;-60
2023/06/22 02:12:02;;;;;;;8.82;6.53;;;;;;;;;;5014165;28;20282;-60
2023/06/22 02:14:28;;;;;;;9.90;5.65;;;;;;;;;;5014904;28;20697;-60
2023/06/22 02:16:53;;;;;;;9.10;5.97;;;;;;;;;;5014864;28;20252;-60
2023/06/22 02:19:22;;;;;;;9.02;6.32;;;;;;;;;;4995037;28;20298;-60
2023/06/22 02:21:47;;;;;;;8.00;5.93;;;;;;;;;;5003244;28;20240;-60
2023/06/22 02:24:13;;;;;;;11.18;6.53;;;;;;;;;;4987242;28;20259;-60
2023/06/22 02:26:39;;;;;;;10.13;5.82;;;;;;;;;;4986108;28;20252;-60
2023/06/22 02:29:05;;;;;;;8.10;5.40;;;;;;;;;;4984574;28;20597;-60
2023/06/22 02:31:30;;;;;;;12.50;5.85;;;;;;;;;;4984935;28;20217;-60
2023/06/22 02:33:57;;;;;;;9.77;6.00;;;;;;;;;;4981441;28;20209;-60
2023/06/22 02:36:23;;;;;;;10.52;6.95;;;;;;;;;;4984021;28;20217;-60
2023/06/22 02:38:49;;;;;;;12.52;8.75;;;;;;;;;;4995662;28;20303;-60
2023/06/22 02:41:18;;;;;;;10.88;6.80;;;;;;;;;;5000624;28;20321;-60
2023/06/22 02:43:43;;;;;;;10.05;7.25;;;;;;;;;;5004034;28;20274;-60
2023/06/22 02:46:09;;;;;;;10.90;6.88;;;;;;;;;;5003754;28;20212;-60
2023/06/22 02:48:34;;;;;;;11.43;8.93;;;;;;;;;;5004284;28;20228;-60
2023/06/22 02:50:59;;;;;;;13.13;8.55;;;;;;;;;;5002823;28;20271;-60
2023/06/22 02:53:25;;;;;;;11.10;6.80;;;;;;;;;;4991556;28;20209;-60
2023/06/22 02:55:50;;;;;;;11.50;8.30;;;;;;;;;;4982977;28;20275;-60
2023/06/22 02:58:16;;;;;;;12.35;8.90;;;;;;;;;;4976858;28;20299;-60
2023/06/22 03:00:41;;;;;;;11.88;7.68;;;;;;;;;;4995262;28;20314;-60
2023/06/22 03:03:07;;;;;;;13.07;7.32;;;;;;;;;;4998250;28;20749;-60
2023/06/22 03:05:32;;;;;;;11.45;7.75;;;;;;;;;;5003972;28;20823;-60
2023/06/22 03:07:58;;;;;;;11.70;7.10;;;;;;;;;;5002940;28;20224;-60
2023/06/22 03:10:23;;;;;;;10.68;7.47;;;;;;;;;;5003129;28;20675;-60
2023/06/22 03:12:48;;;;;;;13.07;8.13;;;;;;;;;;5003947;28;20228;-60
2023/06/22 03:15:14;;;;;;;11.68;9.85;;;;;;;;;;4995005;28;20216;-60
2023/06/22 03:17:39;;;;;;;13.98;10.40;;;;;;;;;;4984906;28;20229;-60
2023/06/22 03:20:09;;;;;;;14.18;10.98;;;;;;;;;;4977066;28;20465;-60
2023/06/22 03:22:36;;;;;;;18.48;14.60;;;;;;;;;;4995195;28;20208;-60
2023/06/22 03:25:01;;;;;;;17.70;12.75;;;;;;;;;;4978292;28;20221;-60
2023/06/22 03:27:26;;;;;;;19.90;13.38;;;;;;;;;;4986449;28;20656;-60
2023/06/22 03:29:52;;;;;;;19.67;13.07;;;;;;;;;;4983996;28;20283;-60
2023/06/22 03:32:17;;;;;;;16.63;12.82;;;;;;;;;;4983373;28;20209;-60
2023/06/22 03:34:46;;;;;;;17.50;13.63;;;;;;;;;;4983720;28;20229;-60
2023/06/22 03:37:13;;;;;;;16.98;14.65;;;;;;;;;;5002861;28;20302;-60
2023/06/22 03:39:38;;;;;;;18.67;15.20;;;;;;;;;;5003444;28;20244;-60
2023/06/22 03:42:03;;;;;;;18.17;14.38;;;;;;;;;;4997716;28;20276;-60
2023/06/22 03:44:29;;;;;;;23.58;17.13;;;;;;;;;;4995120;28;20235;-60
2023/06/22 03:46:54;;;;;;;21.38;16.95;;;;;;;;;;4994729;28;20669;-60
2023/06/22 03:49:19;;;;;;;22.58;18.58;;;;;;;;;;4999717;28;20271;-61
2023/06/22 03:51:45;;;;;;;26.08;19.52;;;;;;;;;;5003279;28;20679;-60
2023/06/22 03:54:10;;;;;;;24.23;19.20;;;;;;;;;;5002366;28;20698;-60
2023/06/22 03:56:36;;;;;;;23.88;19.60;;;;;;;;;;4987835;28;20676;-60
2023/06/22 03:59:01;;;;;;;25.52;20.42;;;;;;;;;;5002323;28;20215;-60
2023/06/22 04:01:26;;;;;;;23.45;20.17;;;;;;;;;;5003123;28;20219;-60
2023/06/22 04:03:52;;;;;;;27.33;22.42;;;;;;;;;;4999905;28;20742;-60
2023/06/22 04:06:17;;;;;;;26.67;22.15;;;;;;;;;;4995008;28;20236;-59
2023/06/22 04:08:44;;;;;;;27.20;22.30;;;;;;;;;;4987517;28;20243;-61
2023/06/22 04:11:10;;;;;;;25.17;21.80;;;;;;;;;;4977308;28;20765;-61
2023/06/22 04:13:35;;;;;;;27.58;23.35;;;;;;;;;;4984097;28;20308;-60
2023/06/22 04:16:01;;;;;;;31.05;23.60;;;;;;;;;;4982487;28;20728;-60
2023/06/22 04:18:26;;;;;;;27.13;24.23;;;;;;;;;;5004724;28;20201;-60
2023/06/22 04:20:51;;;;;;;31.55;25.10;;;;;;;;;;5011076;28;20221;-60
2023/06/22 04:23:17;;;;;;;30.25;23.80;;;;;;;;;;5012154;28;20299;-60
2023/06/22 04:25:42;;;;;;;28.67;24.15;;;;;;;;;;5012161;28;20259;-60
2023/06/22 04:28:12;;;;;;;28.20;25.27;;;;;;;;;;5008718;28;20232;-60
2023/06/22 04:30:45;;;;;;;29.35;24.77;;;;;;;;;;5012424;28;20208;-60
2023/06/22 04:33:11;;;;;;;28.42;25.17;;;;;;;;;;4986721;28;20252;-60
2023/06/22 04:35:36;;;;;;;31.63;25.83;;;;;;;;;;4983343;28;20249;-60
2023/06/22 04:38:03;;;;;;;30.75;25.55;;;;;;;;;;4982437;28;20256;-60
2023/06/22 04:40:28;;;;;;;33.10;25.13;;;;;;;;;;4997615;28;20264;-60
2023/06/22 04:42:54;;;;;;;28.90;25.15;;;;;;;;;;4994158;28;20746;-60
2023/06/22 04:45:19;;;;;;;28.15;24.15;;;;;;;;;;4993547;28;20275;-60
2023/06/22 04:47:45;;;;;;;32.05;25.92;;;;;;;;;;4999407;28;20219;-61
2023/06/22 04:50:11;;;;;;;27.27;22.88;;;;;;;;;;5001663;28;20274;-60
2023/06/22 04:52:36;;;;;;;27.60;22.63;;;;;;;;;;5002170;28;20497;-60
2023/06/22 04:55:02;;;;;;;29.30;25.25;;;;;;;;;;4999100;28;20209;-60
2023/06/22 04:57:32;;;;;;;26.88;23.58;;;;;;;;;;5001629;28;20607;-60
2023/06/22 05:00:09;;;;;;;28.23;24.42;;;;;;;;;;5001773;28;20304;-60
2023/06/22 05:02:36;;;;;;;26.67;23.48;;;;;;;;;;4998875;28;20572;-60
2023/06/22 05:05:06;;;;;;;28.95;23.92;;;;;;;;;;4993317;28;20251;-60
2023/06/22 05:07:32;;;;;;;27.02;23.17;;;;;;;;;;4993670;28;20568;-60
2023/06/22 05:09:57;;;;;;;26.95;23.92;;;;;;;;;;4981154;28;20239;-60
2023/06/22 05:12:22;;;;;;;24.73;21.23;;;;;;;;;;4982299;28;20228;-60
2023/06/22 05:14:48;;;;;;;25.40;22.10;;;;;;;;;;4982468;28;20729;-60
2023/06/22 05:17:13;;;;;;;24.70;22.00;;;;;;;;;;4982370;28;20252;-60
2023/06/22 05:19:39;;;;;;;26.33;23.52;;;;;;;;;;4982589;28;20209;-61
2023/06/22 05:22:05;;;;;;;26.20;22.10;;;;;;;;;;4981805;28;20225;-61
2023/06/22 05:24:30;;;;;;;24.58;20.55;;;;;;;;;;4981619;28;20213;-61
2023/06/22 05:26:56;;;;;;;27.83;23.40;;;;;;;;;;4975077;28;20743;-61
2023/06/22 05:29:22;;;;;;;25.85;23.08;;;;;;;;;;4974361;28;20514;-60
2023/06/22 05:31:47;;;;;;;27.40;22.73;;;;;;;;;;4975300;28;20801;-60
2023/06/22 05:34:13;;;;;;;25.25;21.92;;;;;;;;;;4981853;28;20251;-61
2023/06/22 05:36:38;;;;;;;27.73;23.35;;;;;;;;;;4999253;28;20243;-60
2023/06/22 05:39:12;;;;;;;25.42;21.65;;;;;;;;;;5011385;28;20584;-60
2023/06/22 05:41:37;;;;;;;24.45;21.83;;;;;;;;;;5011369;28;20220;-60
2023/06/22 05:44:03;;;;;;;24.45;21.88;;;;;;;;;;5020115;28;20239;-59
2023/06/22 05:46:28;;;;;;;26.13;21.83;;;;;;;;;;5012950;28;20265;-60
2023/06/22 05:48:54;;;;;;;25.63;22.90;;;;;;;;;;5018994;28;20686;-60
2023/06/22 05:51:19;;;;;;;25.77;22.35;;;;;;;;;;5011428;28;20239;-60
2023/06/22 05:53:49;;;;;;;27.00;21.63;;;;;;;;;;5012446;28;20259;-60
2023/06/22 05:56:14;;;;;;;25.30;22.20;;;;;;;;;;5027465;28;20207;-61
2023/06/22 05:58:39;;;;;;;25.45;21.48;;;;;;;;;;5035209;28;20587;-61
2023/06/22 06:01:05;;;;;;;25.05;22.45;;;;;;;;;;5034147;28;20714;-61
2023/06/22 06:03:30;;;;;;;24.20;21.60;;;;;;;;;;5020958;28;20675;-61
2023/06/22 06:05:56;;;;;;;24.27;21.52;;;;;;;;;;5015265;28;20579;-60
2023/06/22 06:08:21;;;;;;;26.15;23.10;;;;;;;;;;5018559;28;20612;-61
2023/06/22 06:10:46;;;;;;;25.88;23.02;;;;;;;;;;5034553;28;20705;-61
2023/06/22 06:13:12;;;;;;;25.50;21.48;;;;;;;;;;5034505;28;20216;-60
2023/06/22 06:15:38;;;;;;;23.63;21.13;;;;;;;;;;5021741;28;20216;-61
2023/06/22 06:18:05;;;;;;;23.10;20.58;;;;;;;;;;5014041;28;20208;-61
2023/06/22 06:20:30;;;;;;;26.73;22.63;;;;;;;;;;5015127;28;20212;-61
2023/06/22 06:22:56;;;;;;;27.02;21.88;;;;;;;;;;5014865;28;20212;-60
2023/06/22 06:25:21;;;;;;;24.13;21.48;;;;;;;;;;5013900;28;20219;-60
2023/06/22 06:27:47;;;;;;;24.48;21.88;;;;;;;;;;5013449;28;20216;-61
2023/06/22 06:30:13;;;;;;;23.60;21.20;;;;;;;;;;5013939;28;20221;-61
2023/06/22 06:32:39;;;;;;;24.80;21.67;;;;;;;;;;5014982;28;20212;-61
2023/06/22 06:35:06;;;;;;;23.63;21.20;;;;;;;;;;5013242;28;20976;-61
2023/06/22 06:37:31;;;;;;;22.88;19.88;;;;;;;;;;5018565;28;20240;-62
2023/06/22 06:39:57;;;;;;;26.95;20.52;;;;;;;;;;5020451;28;20209;-62
2023/06/22 06:42:24;;;;;;;22.88;19.05;;;;;;;;;;5023127;28;20558;-63
2023/06/22 06:44:49;;;;;;;24.83;20.02;;;;;;;;;;5016401;28;20217;-64
2023/06/22 06:47:15;;;;;;;21.90;19.45;;;;;;;;;;5017696;28;20205;-63
2023/06/22 06:49:40;;;;;;;22.85;20.15;;;;;;;;;;5014796;28;20650;-63
2023/06/22 06:52:06;;;;;;;22.67;20.35;;;;;;;;;;5023309;28;20211;-62
2023/06/22 06:54:31;;;;;;;25.98;20.95;;;;;;;;;;5024215;28;20212;-63
2023/06/22 06:56:56;;;;;;;23.15;19.52;;;;;;;;;;5025197;28;20208;-63
2023/06/22 06:59:22;;;;;;;21.60;18.77;;;;;;;;;;5023463;28;20233;-63
2023/06/22 07:01:48;;;;;;;21.60;18.08;;;;;;;;;;5023307;28;20273;-61
2023/06/22 07:04:14;;;;;;;21.38;19.08;;;;;;;;;;5013398;28;20434;-62
2023/06/22 07:06:39;;;;;;;20.70;18.38;;;;;;;;;;5010875;28;20217;-62
2023/06/22 07:09:04;;;;;;;21.13;18.88;;;;;;;;;;5023635;28;20636;-62
2023/06/22 07:11:30;;;;;;;23.13;18.70;;;;;;;;;;5033708;28;20211;-62
2023/06/22 07:13:55;;;;;;;22.40;19.13;;;;;;;;;;5033109;28;20735;-62
2023/06/22 07:16:21;;;;;;;21.52;19.23;;;;;;;;;;5015998;28;20299;-62
2023/06/22 07:18:46;;;;;;;24.50;20.15;;;;;;;;;;5013697;28;20227;-62
2023/06/22 07:21:11;;;;;;;22.73;19.40;;;;;;;;;;5012876;28;20240;-61
2023/06/22 07:23:37;;;;;;;21.38;18.38;;;;;;;;;;5014043;28;20660;-62
2023/06/22 07:26:02;;;;;;;20.23;18.02;;;;;;;;;;5013168;28;20615;-62
2023/06/22 07:28:27;;;;;;;19.83;17.73;;;;;;;;;;5013116;28;20243;-62
2023/06/22 07:30:53;;;;;;;20.05;17.95;;;;;;;;;;5013310;28;20687;-62
2023/06/22 07:33:19;;;;;;;19.98;17.02;;;;;;;;;;5013442;28;20274;-62
2023/06/22 07:35:44;;;;;;;18.73;16.58;;;;;;;;;;5012840;28;20679;-62
2023/06/22 07:38:10;;;;;;;19.63;16.13;;;;;;;;;;5012864;28;20225;-61
2023/06/22 07:40:35;;;;;;;17.85;15.95;;;;;;;;;;5012948;28;20229;-62
2023/06/22 07:43:01;;;;;;;18.95;15.20;;;;;;;;;;5013065;28;20205;-62
2023/06/22 07:45:26;;;;;;;20.77;15.57;;;;;;;;;;5012766;28;20299;-62
2023/06/22 07:47:51;;;;;;;16.30;14.40;;;;;;;;;;5012605;28;20216;-63
2023/06/22 07:50:17;;;;;;;18.85;15.82;;;;;;;;;;5012841;28;20303;-62
2023/06/22 07:52:42;;;;;;;18.23;16.13;;;;;;;;;;5013154;28;20300;-61
2023/06/22 07:55:08;;;;;;;18.73;14.85;;;;;;;;;;5024113;28;20593;-63
2023/06/22 07:57:33;;;;;;;16.75;14.65;;;;;;;;;;5032922;28;20208;-63
2023/06/22 07:59:59;;;;;;;16.45;14.38;;;;;;;;;;5032214;28;20230;-64
2023/06/22 08:02:25;;;;;;;17.63;14.48;;;;;;;;;;5031871;28;20688;-64
2023/06/22 08:04:50;;;;;;;17.48;13.55;;;;;;;;;;5032902;28;20208;-64
2023/06/22 08:07:15;;;;;;;16.67;14.38;;;;;;;;;;5032057;28;20226;-63
2023/06/22 08:09:41;;;;;;;16.17;14.32;;;;;;;;;;5028495;28;20314;-65
2023/06/22 08:12:07;;;;;;;17.17;14.07;;;;;;;;;;5018924;28;20212;-63
2023/06/22 08:14:36;;;;;;;15.38;12.48;;;;;;;;;;5028920;28;20218;-63
2023/06/22 08:17:01;;;;;;;16.05;13.35;;;;;;;;;;5011705;28;20754;-62
2023/06/22 08:19:26;;;;;;;14.23;12.55;;;;;;;;;;5011500;28;20204;-63
2023/06/22 08:21:52;;;;;;;16.75;13.20;;;;;;;;;;5012396;28;20212;-63
2023/06/22 08:24:17;;;;;;;17.85;13.63;;;;;;;;;;5011598;28;20212;-63
2023/06/22 08:26:42;;;;;;;15.40;13.25;;;;;;;;;;5012646;28;20271;-63
2023/06/22 08:29:08;;;;;;;14.95;13.30;;;;;;;;;;5011940;28;20232;-62
2023/06/22 08:31:34;;;;;;;15.32;12.60;;;;;;;;;;5011857;28;20214;-63
2023/06/22 08:33:59;;;;;;;16.98;12.25;;;;;;;;;;5012305;28;20223;-63
2023/06/22 08:36:24;;;;;;;14.35;11.27;;;;;;;;;;5011921;28;20208;-63
2023/06/22 08:38:51;;;;;;;15.57;12.10;;;;;;;;;;5012052;28;20220;-63
2023/06/22 08:41:17;;;;;;;14.27;11.77;;;;;;;;;;5011844;28;20282;-63
2023/06/22 08:43:44;;;;;;;14.85;12.18;;;;;;;;;;5012578;28;20224;-63
2023/06/22 08:46:09;;;;;;;14.80;11.80;;;;;;;;;;5010823;28;20475;-63
2023/06/22 08:48:34;;;;;;;14.98;12.10;;;;;;;;;;5010894;28;20216;-63
2023/06/22 08:51:00;;;;;;;13.55;11.00;;;;;;;;;;5011865;28;20581;-63
2023/06/22 08:53:25;;;;;;;11.65;10.30;;;;;;;;;;5011902;28;20208;-63
2023/06/22 08:55:50;;;;;;;15.43;12.20;;;;;;;;;;5022181;28;20295;-63
2023/06/22 08:58:16;;;;;;;15.15;12.73;;;;;;;;;;5030981;28;20269;-63
2023/06/22 09:00:41;;;;;;;13.05;10.88;;;;;;;;;;5031721;28;20584;-63
2023/06/22 09:03:06;;;;;;;13.27;10.63;;;;;;;;;;5031322;28;20216;-63
2023/06/22 09:05:32;;;;;;;14.30;11.57;;;;;;;;;;5031477;28;20265;-63
2023/06/22 09:07:58;;;;;;;15.20;12.10;;;;;;;;;;5030818;28;20262;-63
2023/06/22 09:10:24;;;;;;;14.20;11.43;;;;;;;;;;5011510;28;20213;-63
2023/06/22 09:12:49;;;;;;;14.02;10.65;;;;;;;;;;5011561;28;20216;-64
2023/06/22 09:15:14;;;;;;;14.00;10.75;;;;;;;;;;5011329;28;20212;-63
2023/06/22 09:17:40;;;;;;;15.05;10.98;;;;;;;;;;5011824;28;20212;-63
2023/06/22 09:20:07;;;;;;;13.68;10.18;;;;;;;;;;5010954;28;20211;-63
2023/06/22 09:22:32;;;;;;;12.45;10.63;;;;;;;;;;5012006;28;20701;-63
2023/06/22 09:24:59;;;;;;;12.52;10.30;;;;;;;;;;5011833;28;20224;-63
2023/06/22 09:27:24;;;;;;;12.77;9.70;;;;;;;;;;5011090;28;20262;-63
2023/06/22 09:29:50;;;;;;;12.00;9.65;;;;;;;;;;5014180;28;20228;-63
2023/06/22 09:32:15;;;;;;;12.32;9.80;;;;;;;;;;5015093;28;20213;-63
2023/06/22 09:34:41;;;;;;;13.73;9.82;;;;;;;;;;5015301;28;20212;-64
2023/06/22 09:37:06;;;;;;;11.88;9.18;;;;;;;;;;5014313;28;20982;-62
2023/06/22 09:39:32;;;;;;;13.25;8.82;;;;;;;;;;5020676;28;20222;-62
2023/06/22 09:41:58;;;;;;;13.27;8.68;;;;;;;;;;5031527;28;20687;-62
2023/06/22 09:44:23;;;;;;;11.05;8.18;;;;;;;;;;5034438;28;20667;-61
2023/06/22 09:46:49;;;;;;;11.02;7.95;;;;;;;;;;5026207;28;20219;-62
2023/06/22 09:49:14;;;;;;;11.70;8.55;;;;;;;;;;5014567;28;20706;-63
2023/06/22 09:51:39;;;;;;;11.43;8.50;;;;;;;;;;5015357;28;20213;-62
2023/06/22 09:54:05;;;;;;;10.27;8.57;;;;;;;;;;5015138;28;20221;-62
2023/06/22 09:56:31;;;;;;;9.18;7.25;;;;;;;;;;5030183;28;20208;-62
2023/06/22 09:58:56;;;;;;;10.38;7.72;;;;;;;;;;5034716;28;20640;-63
2023/06/22 10:01:22;;;;;;;11.25;8.43;;;;;;;;;;5033920;28;20294;-63
2023/06/22 10:03:48;;;;;;;10.10;8.43;;;;;;;;;;5035080;28;20686;-64
2023/06/22 10:06:13;;;;;;;11.40;8.95;;;;;;;;;;5021359;28;20618;-66
2023/06/22 10:08:40;;;;;;;10.75;7.82;;;;;;;;;;5020850;28;20267;-63
2023/06/22 10:11:05;;;;;;;9.93;7.90;;;;;;;;;;5034483;28;20265;-65
2023/06/22 10:13:31;;;;;;;9.05;7.88;;;;;;;;;;5034595;28;20212;-65
2023/06/22 10:15:56;;;;;;;8.18;7.00;;;;;;;;;;5020215;28;20219;-66
2023/06/22 10:18:21;;;;;;;12.63;6.72;;;;;;;;;;5014384;28;20218;-65
2023/06/22 10:20:47;;;;;;;11.38;7.25;;;;;;;;;;5014833;28;20291;-66
2023/06/22 10:23:12;;;;;;;8.65;7.18;;;;;;;;;;5013987;28;20299;-65
2023/06/22 10:25:38;;;;;;;9.38;6.78;;;;;;;;;;5014645;28;20213;-66
2023/06/22 10:28:03;;;;;;;12.57;7.28;;;;;;;;;;5016640;28;20707;-65
2023/06/22 10:30:29;;;;;;;9.25;6.30;;;;;;;;;;5024393;28;20212;-66
2023/06/22 10:32:54;;;;;;;7.97;6.35;;;;;;;;;;5023539;28;20208;-65
2023/06/22 10:35:19;;;;;;;11.70;7.00;;;;;;;;;;5020715;28;21905;-65
2023/06/22 10:37:45;;;;;;;8.02;5.97;;;;;;;;;;5012739;28;20204;-65
2023/06/22 10:40:12;;;;;;;10.75;7.60;;;;;;;;;;5013863;28;20764;-65
2023/06/22 10:42:37;;;;;;;10.55;7.00;;;;;;;;;;5014619;28;20617;-65
2023/06/22 10:45:04;;;;;;;9.50;8.10;;;;;;;;;;5013570;28;20223;-65
2023/06/22 10:47:29;;;;;;;10.65;8.35;;;;;;;;;;5014200;28;20220;-66
2023/06/22 10:49:54;;;;;;;10.00;7.60;;;;;;;;;;5014510;28;20286;-65
2023/06/22 10:52:20;;;;;;;11.02;7.43;;;;;;;;;;5013697;28;20228;-65
2023/06/22 10:54:45;;;;;;;8.85;7.03;;;;;;;;;;5015028;28;20213;-65
2023/06/22 10:57:10;;;;;;;9.32;7.57;;;;;;;;;;5033850;28;20220;-65
2023/06/22 10:59:35;;;;;;;9.95;6.82;;;;;;;;;;5033289;28;20233;-65
2023/06/22 11:02:02;;;;;;;12.60;7.97;;;;;;;;;;5033465;28;20242;-65
2023/06/22 11:04:27;;;;;;;11.82;7.53;;;;;;;;;;5033901;28;20630;-65
2023/06/22 11:06:52;;;;;;;9.45;7.63;;;;;;;;;;5033540;28;20207;-65
2023/06/22 11:09:21;;;;;;;11.60;7.93;;;;;;;;;;5021058;28;20238;-65
2023/06/22 11:11:47;;;;;;;9.25;7.57;;;;;;;;;;5015976;28;20216;-65
2023/06/22 11:14:12;;;;;;;10.85;7.78;;;;;;;;;;5021665;28;20221;-66
2023/06/22 11:16:37;;;;;;;9.60;7.38;;;;;;;;;;5019321;28;20208;-65
2023/06/22 11:19:04;;;;;;;11.02;7.00;;;;;;;;;;5013000;28;20220;-66
2023/06/22 11:21:29;;;;;;;9.25;6.88;;;;;;;;;;5013954;28;20355;-66
2023/06/22 11:23:55;;;;;;;11.73;6.68;;;;;;;;;;5013562;28;20332;-66
2023/06/22 11:26:21;;;;;;;7.68;6.70;;;;;;;;;;5012630;28;20224;-65
2023/06/22 11:28:46;;;;;;;9.20;6.22;;;;;;;;;;5013535;28;20220;-66
2023/06/22 11:31:11;;;;;;;8.38;6.38;;;;;;;;;;5013173;28;20224;-65
2023/06/22 11:33:37;;;;;;;8.82;6.03;;;;;;;;;;5013105;28;20594;-65
2023/06/22 11:36:02;;;;;;;8.23;6.10;;;;;;;;;;5013409;28;20243;-65
2023/06/22 11:38:27;;;;;;;10.25;6.70;;;;;;;;;;5013367;28;20213;-65
2023/06/22 11:40:53;;;;;;;8.10;6.47;;;;;;;;;;5012772;28;20239;-65
2023/06/22 11:43:18;;;;;;;8.95;6.60;;;;;;;;;;5014453;28;20209;-66
2023/06/22 11:45:44;;;;;;;9.02;6.93;;;;;;;;;;5017541;28;20255;-65
2023/06/22 11:48:09;;;;;;;9.55;6.65;;;;;;;;;;5011904;28;20216;-65
2023/06/22 11:50:36;;;;;;;11.55;7.50;;;;;;;;;;5012903;28;20227;-66
2023/06/22 11:53:02;;;;;;;9.45;8.10;;;;;;;;;;5011860;28;20204;-65
2023/06/22 11:55:27;;;;;;;9.95;7.03;;;;;;;;;;5021479;28;20275;-66
2023/06/22 11:58:01;;;;;;;9.93;7.38;;;;;;;;;;5022089;28;20208;-65
2023/06/22 12:00:26;;;;;;;9.23;7.22;;;;;;;;;;5011003;28;20232;-65
2023/06/22 12:02:52;;;;;;;8.73;6.30;;;;;;;;;;5012643;28;20263;-65
2023/06/22 12:05:21;;;;;;;8.68;7.65;;;;;;;;;;5012342;28;20219;-66
2023/06/22 12:07:46;;;;;;;12.55;7.80;;;;;;;;;;5022305;28;20208;-66
2023/06/22 12:10:12;;;;;;;10.25;7.57;;;;;;;;;;5024263;28;20219;-66
2023/06/22 12:12:37;;;;;;;11.80;8.60;;;;;;;;;;5021169;28;20212;-68
2023/06/22 12:15:03;;;;;;;8.82;7.50;;;;;;;;;;5019767;28;20196;-70
2023/06/22 12:17:29;;;;;;;12.88;9.75;;;;;;;;;;5022945;28;20208;-68
2023/06/22 12:19:55;;;;;;;14.10;9.07;;;;;;;;;;5021839;28;20236;-67
2023/06/22 12:22:20;;;;;;;14.15;9.80;;;;;;;;;;5020223;28;20259;-67
2023/06/22 12:24:45;;;;;;;11.88;8.50;;;;;;;;;;5026655;28;20269;-67
2023/06/22 12:27:11;;;;;;;13.30;8.60;;;;;;;;;;5020967;28;20628;-68
2023/06/22 12:29:36;;;;;;;10.40;7.65;;;;;;;;;;5019771;28;20221;-70
2023/06/22 12:32:02;;;;;;;11.88;8.82;;;;;;;;;;5023581;28;20577;-68
2023/06/22 12:34:27;;;;;;;13.52;11.20;;;;;;;;;;5031882;28;20212;-67
2023/06/22 12:36:54;;;;;;;14.18;11.13;;;;;;;;;;5020553;28;20215;-67
2023/06/22 12:39:19;;;;;;;14.20;10.65;;;;;;;;;;5029160;28;20216;-67
2023/06/22 12:41:45;;;;;;;13.32;10.98;;;;;;;;;;5024473;28;20236;-66
2023/06/22 12:44:10;;;;;;;15.77;11.68;;;;;;;;;;5011302;28;20225;-66
2023/06/22 12:46:37;;;;;;;17.08;12.50;;;;;;;;;;5016810;28;20212;-69
2023/06/22 12:49:04;;;;;;;14.65;13.05;;;;;;;;;;5014647;28;20228;-69
2023/06/22 12:51:29;;;;;;;16.48;13.13;;;;;;;;;;5009499;28;20702;-69
2023/06/22 12:53:54;;;;;;;17.83;13.02;;;;;;;;;;5012340;28;20216;-70
2023/06/22 12:56:20;;;;;;;14.90;13.10;;;;;;;;;;5017787;28;20335;-69
2023/06/22 12:58:45;;;;;;;20.55;15.50;;;;;;;;;;5019530;28;20270;-71
2023/06/22 13:01:10;;;;;;;15.80;14.20;;;;;;;;;;5017413;28;20205;-68
2023/06/22 13:03:36;;;;;;;16.85;14.23;;;;;;;;;;5012821;28;20231;-69
2023/06/22 13:06:03;;;;;;;16.63;14.13;;;;;;;;;;5015253;28;20220;-69
2023/06/22 13:08:28;;;;;;;20.33;14.85;;;;;;;;;;5021617;28;20231;-69
2023/06/22 13:10:56;;;;;;;16.70;14.90;;;;;;;;;;5029745;28;20571;-70
2023/06/22 13:13:24;;;;;;;16.00;14.10;;;;;;;;;;5031633;28;20212;-69
2023/06/22 13:15:49;;;;;;;17.00;15.20;;;;;;;;;;5022508;28;20671;-69
2023/06/22 13:18:15;;;;;;;18.20;16.25;;;;;;;;;;5015135;28;20212;-68
2023/06/22 13:20:40;;;;;;;17.08;14.85;;;;;;;;;;5015914;28;20601;-68
2023/06/22 13:23:05;;;;;;;15.85;14.15;;;;;;;;;;5020416;28;20201;-67
2023/06/22 13:25:31;;;;;;;18.60;15.50;;;;;;;;;;5025181;28;20660;-68
2023/06/22 13:27:56;;;;;;;17.27;15.48;;;;;;;;;;5025427;28;20210;-67
2023/06/22 13:30:21;;;;;;;17.80;15.77;;;;;;;;;;5024846;28;20698;-68
2023/06/22 13:32:47;;;;;;;18.48;16.65;;;;;;;;;;5032302;28;20212;-67
2023/06/22 13:35:12;;;;;;;18.30;16.42;;;;;;;;;;5035295;28;20223;-68
2023/06/22 13:37:37;;;;;;;17.25;15.45;;;;;;;;;;5027182;28;20216;-67
2023/06/22 13:40:06;;;;;;;20.48;18.27;;;;;;;;;;5019995;28;20265;-67
2023/06/22 13:42:31;;;;;;;21.63;19.27;;;;;;;;;;5018686;28;20263;-68
2023/06/22 13:44:57;;;;;;;20.77;18.35;;;;;;;;;;5015374;28;20213;-68
2023/06/22 13:47:22;;;;;;;21.15;18.45;;;;;;;;;;5012689;28;20258;-68
2023/06/22 13:49:48;;;;;;;20.58;18.40;;;;;;;;;;5013867;28;20224;-69
2023/06/22 13:52:13;;;;;;;21.88;19.58;;;;;;;;;;5014788;28;20222;-68
2023/06/22 13:54:38;;;;;;;20.00;17.90;;;;;;;;;;5026107;28;20200;-70
2023/06/22 13:57:04;;;;;;;19.98;17.88;;;;;;;;;;5031322;28;20224;-69
2023/06/22 13:59:30;;;;;;;20.83;17.83;;;;;;;;;;5022849;28;20312;-68
2023/06/22 14:01:55;;;;;;;25.08;20.67;;;;;;;;;;5022587;28;20214;-69
2023/06/22 14:04:22;;;;;;;19.50;17.33;;;;;;;;;;5029140;28;20261;-68
2023/06/22 14:06:48;;;;;;;18.75;16.50;;;;;;;;;;5024832;28;20216;-68
2023/06/22 14:09:13;;;;;;;22.42;19.30;;;;;;;;;;5023167;28;20236;-67
2023/06/22 14:11:38;;;;;;;20.17;18.08;;;;;;;;;;5023120;28;20224;-67
2023/06/22 14:14:04;;;;;;;20.65;18.50;;;;;;;;;;5014273;28;20211;-66
2023/06/22 14:16:29;;;;;;;20.42;18.33;;;;;;;;;;5014129;28;20231;-67